Altamont, Illinois
Current Conditions -  °F | °C
As of 12:35 AM on Thursday 23 Oct 2014 (Local Time) from K1H2 Reporting Station
Clear Clear  
Wind Chill: 38°   Ceiling: Unl
Heat Index: 38°   Visibility: 10mi
Dew Point: 36°   Wind: 3mph
Humidity: 90%   Direction: 120°ESE
Pressure: 30.25"   Gusts: NA
Location:  39.06°N, 88.75°W
Report Text: K1H2 230535Z AUTO 12003KT 10SM CLR 04/02 A3025 RMK AO2 T00360021
Loading
Personal Weather Stations






























Interactive Weather Map
Tropical Storm Tracking
New forecast layout! Learn more

10-Day Weather Forecast

Advertisements
Track Severe Weather on mobile